Time;durP1;ratioP1;P1;durP2;ratioP2;P2;SDS_P1;SDS_P2;PMS_P1;PMS_P2;Temp;Humidity;BMP_temperature;BMP_pressure;BME280_temperature;BME280_humidity;BME280_pressure;Samples;Min_cycle;Max_cycle;Signal;HPM_P1;HPM_P2
2023/11/29 00:51:16;;;;;;;67.40;28.57;;;-2.90;99.90;;;;;;4563146;30;20646;-83
2023/11/29 03:06:45;;;;;;;49.43;21.03;;;-3.00;99.90;;;;;;4762648;29;20642;-84
2023/11/29 03:27:28;;;;;;;42.77;18.67;;;-3.00;99.90;;;;;;4683880;29;20842;-83
2023/11/29 03:57:55;;;;;;;36.60;17.07;;;-3.20;99.90;;;;;;4629331;29;20478;-82
2023/11/29 04:33:28;;;;;;;39.33;17.90;;;-3.50;99.90;;;;;;4563115;30;20302;-86
2023/11/29 04:58:46;;;;;;;38.43;15.70;;;-3.80;99.90;;;;;;4549377;30;20261;-84
2023/11/29 05:18:46;;;;;;;44.50;17.13;;;-4.20;99.90;;;;;;4471939;30;20652;-85
2023/11/29 05:49:19;;;;;;;49.90;17.70;;;-3.80;99.90;;;;;;4567536;30;20722;-83
2023/11/29 06:09:55;;;;;;;34.93;14.77;;;-3.40;99.90;;;;;;4584672;30;20478;-85
2023/11/29 06:40:12;;;;;;;37.47;16.70;;;-3.00;99.90;;;;;;4559772;30;20214;-85
2023/11/29 07:00:18;;;;;;;41.17;17.83;;;-3.30;99.90;;;;;;4592356;30;20581;-83
2023/11/29 07:35:45;;;;;;;48.87;20.17;;;-2.70;99.90;;;;;;4427500;30;20752;-83
2023/11/29 08:00:52;;;;;;;40.67;20.37;;;-2.30;99.90;;;;;;4379192;30;20736;-82
2023/11/29 08:52:22;;;;;;;45.80;20.30;;;-1.70;99.90;;;;;;4495595;30;20697;-81
2023/11/29 09:32:46;;;;;;;37.80;17.93;;;-1.50;99.90;;;;;;4416395;30;20254;-83
2023/11/29 09:57:59;;;;;;;22.43;11.97;;;-1.20;99.90;;;;;;4459788;30;20771;-82
2023/11/29 10:18:26;;;;;;;27.57;13.77;;;-1.50;99.70;;;;;;4396273;30;20894;-82
2023/11/29 10:48:24;;;;;;;29.80;15.17;;;-0.80;97.50;;;;;;4511516;30;20796;-83
2023/11/29 11:14:23;;;;;;;36.30;15.17;;;-0.60;95.00;;;;;;4603549;29;20284;-83
2023/11/29 11:39:48;;;;;;;23.40;11.83;;;-0.40;92.20;;;;;;4506754;30;21787;-82
2023/11/29 12:09:34;;;;;;;16.87;10.37;;;-0.10;90.30;;;;;;4662190;29;20969;-84
2023/11/29 12:30:11;;;;;;;19.67;10.00;;;0.20;90.20;;;;;;4572848;30;20786;-83
2023/11/29 12:50:28;;;;;;;15.37;10.10;;;-0.30;90.70;;;;;;4651134;29;20588;-81
2023/11/29 13:11:00;;;;;;;18.60;11.07;;;-0.50;90.00;;;;;;4571662;30;20330;-82
2023/11/29 14:22:08;;;;;;;24.13;12.23;;;-1.10;93.60;;;;;;4518815;30;20327;-84
2023/11/29 14:42:21;;;;;;;19.17;11.47;;;-1.10;93.20;;;;;;4513983;30;20706;-85
2023/11/29 15:12:15;;;;;;;19.50;11.57;;;-1.40;92.90;;;;;;4655364;30;20573;-86
2023/11/29 15:32:35;;;;;;;17.37;10.33;;;-1.50;93.60;;;;;;4611435;30;20592;-86
2023/11/29 15:53:34;;;;;;;20.13;11.90;;;-1.60;92.90;;;;;;4726498;29;20298;-84
2023/11/29 16:23:23;;;;;;;27.03;15.87;;;-1.60;92.50;;;;;;4818190;29;20510;-85
2023/11/29 17:14:27;;;;;;;27.23;14.50;;;-1.80;94.20;;;;;;4496097;30;20303;-84
2023/11/29 17:44:31;;;;;;;24.53;13.40;;;-1.70;93.80;;;;;;4590611;30;20559;-84
2023/11/29 18:05:31;;;;;;;26.83;14.40;;;-1.70;93.60;;;;;;4572569;30;20705;-86
2023/11/29 18:25:47;;;;;;;29.17;14.93;;;-1.70;93.70;;;;;;4720421;29;20311;-84
2023/11/29 18:46:02;;;;;;;26.13;15.07;;;-2.00;96.00;;;;;;4597642;30;20275;-83
2023/11/29 19:06:25;;;;;;;27.23;15.57;;;-2.70;99.10;;;;;;4621144;30;20272;-85
2023/11/29 19:31:30;;;;;;;30.20;15.73;;;-2.90;99.90;;;;;;4629094;30;20562;-84
2023/11/29 19:57:11;;;;;;;34.23;17.10;;;-3.30;99.90;;;;;;4710622;29;20228;-86
2023/11/29 20:21:52;;;;;;;35.27;17.80;;;-3.40;99.90;;;;;;4511376;31;20237;-85
2023/11/29 20:47:55;;;;;;;35.30;19.03;;;-3.60;99.90;;;;;;4534029;30;20916;-86
2023/11/29 21:23:29;;;;;;;40.33;20.80;;;-4.10;99.90;;;;;;4685461;30;20210;-84
2023/11/29 21:53:44;;;;;;;46.73;23.33;;;-4.40;99.90;;;;;;4672748;29;20799;-86
2023/11/29 22:19:20;;;;;;;47.53;23.13;;;-4.40;99.90;;;;;;4643356;30;20307;-85
2023/11/29 22:54:07;;;;;;;53.47;24.07;;;-4.60;99.90;;;;;;4545811;30;20500;-86
2023/11/29 23:14:25;;;;;;;51.17;24.00;;;-4.70;99.90;;;;;;4566397;30;20898;-88
2023/11/29 23:35:13;;;;;;;56.20;25.47;;;-4.60;99.90;;;;;;4707969;29;20573;-85
